Time;durP1;ratioP1;P1;durP2;ratioP2;P2;SDS_P1;SDS_P2;PMS_P1;PMS_P2;Temp;Humidity;BMP_temperature;BMP_pressure;BME280_temperature;BME280_humidity;BME280_pressure;Samples;Min_cycle;Max_cycle;Signal;HPM_P1;HPM_P2
2021/07/13 00:00:19;;;;;;;18.85;16.63;;;;;;;18.08;89.75;95918.28;3590691;39;20049;-67
2021/07/13 00:02:47;;;;;;;20.05;17.27;;;;;;;18.08;89.64;95921.72;3584241;40;20045;-67
2021/07/13 00:05:17;;;;;;;18.83;16.92;;;;;;;18.08;89.99;95919.06;3582880;40;20060;-67
2021/07/13 00:07:48;;;;;;;18.90;16.13;;;;;;;18.07;89.41;95916.72;3591748;39;20279;-67
2021/07/13 00:10:22;;;;;;;17.90;16.00;;;;;;;18.08;89.85;95921.72;3575329;40;20045;-67
2021/07/13 00:12:52;;;;;;;15.98;14.48;;;;;;;18.10;89.54;95914.22;3575690;40;20048;-67
2021/07/13 00:15:23;;;;;;;17.48;15.73;;;;;;;18.13;88.89;95920.81;3582959;40;20044;-67
2021/07/13 00:17:53;;;;;;;17.60;15.80;;;;;;;18.13;88.98;95916.28;3575031;40;20059;-67
2021/07/13 00:20:22;;;;;;;17.65;15.73;;;;;;;18.15;88.60;95915.97;3584308;40;20083;-67
2021/07/13 00:22:50;;;;;;;16.70;15.10;;;;;;;18.15;88.72;95912.53;3573440;40;20051;-67
2021/07/13 00:25:18;;;;;;;18.27;16.48;;;;;;;18.13;88.77;95910.94;3568178;40;20033;-67
2021/07/13 00:27:47;;;;;;;17.45;15.90;;;;;;;18.11;88.67;95907.78;3573513;40;20045;-67
2021/07/13 00:30:17;;;;;;;16.73;15.13;;;;;;;18.15;88.12;95909.84;3575672;40;20442;-67
2021/07/13 00:32:48;;;;;;;17.05;15.43;;;;;;;18.13;89.15;95907.47;3573459;40;20041;-68
2021/07/13 00:35:17;;;;;;;17.98;16.15;;;;;;;18.09;88.84;95901.97;3573302;40;20075;-67
2021/07/13 00:37:46;;;;;;;16.63;15.18;;;;;;;18.07;88.13;95901.47;3590306;39;20045;-67
2021/07/13 00:40:19;;;;;;;19.08;16.85;;;;;;;18.07;88.31;95901.47;3573383;40;20041;-67
2021/07/13 00:42:49;;;;;;;17.85;15.93;;;;;;;18.09;88.71;95890.50;3574394;40;20047;-67
2021/07/13 00:45:17;;;;;;;17.58;15.82;;;;;;;18.07;89.12;95895.34;3574441;40;20051;-68
2021/07/13 00:47:49;;;;;;;18.70;16.70;;;;;;;18.08;89.42;95887.03;3574098;40;20203;-67
2021/07/13 00:50:19;;;;;;;20.50;18.33;;;;;;;18.08;88.17;95897.72;3572633;40;20059;-67
2021/07/13 00:52:47;;;;;;;19.52;17.45;;;;;;;18.07;89.19;95890.78;3574266;40;20053;-67
2021/07/13 00:55:15;;;;;;;21.70;19.45;;;;;;;18.06;89.17;95891.09;3580766;40;20049;-67
2021/07/13 00:57:43;;;;;;;20.63;18.63;;;;;;;18.06;89.61;95889.22;3571410;40;20387;-67
2021/07/13 01:00:14;;;;;;;20.52;18.42;;;;;;;18.05;89.77;95886.88;3574538;40;20060;-67
2021/07/13 01:02:43;;;;;;;22.13;19.85;;;;;;;18.01;90.04;95884.03;3574006;40;20618;-67
2021/07/13 01:05:21;;;;;;;22.70;20.23;;;;;;;18.06;90.33;95885.78;3573253;40;20329;-67
2021/07/13 01:08:11;;;;;;;23.02;20.75;;;;;;;18.08;89.21;95880.91;3574059;40;20051;-67
2021/07/13 01:11:04;;;;;;;22.48;20.38;;;;;;;18.09;89.86;95882.50;3575487;40;20055;-67
2021/07/13 01:13:56;;;;;;;22.25;19.92;;;;;;;18.11;88.44;95874.94;3574433;40;20143;-67
2021/07/13 01:16:42;;;;;;;23.55;21.27;;;;;;;18.09;88.78;95872.59;3582308;40;20049;-67
2021/07/13 01:19:35;;;;;;;25.05;21.15;;;;;;;18.08;89.72;95867.56;3576169;40;20091;-66
2021/07/13 01:22:06;;;;;;;25.98;20.90;;;;;;;18.05;89.37;95866.28;3582007;40;20061;-68
2021/07/13 01:25:04;;;;;;;22.60;20.20;;;;;;;18.02;89.79;95866.91;3581357;40;20059;-67
2021/07/13 01:27:51;;;;;;;30.80;22.45;;;;;;;18.02;89.59;95860.78;3581752;40;20052;-67
2021/07/13 01:30:28;;;;;;;25.63;22.38;;;;;;;18.00;88.92;95857.63;3575529;40;20060;-67
2021/07/13 01:33:10;;;;;;;25.73;22.48;;;;;;;18.03;89.80;95860.47;3574993;40;20317;-68
2021/07/13 01:35:51;;;;;;;28.17;22.75;;;;;;;18.02;89.67;95855.44;3575785;40;20331;-66
2021/07/13 01:38:23;;;;;;;25.98;23.05;;;;;;;18.02;88.73;95855.44;3573865;40;20056;-66
2021/07/13 01:41:00;;;;;;;27.52;24.70;;;;;;;18.00;89.19;95853.09;3574934;40;20047;-69
2021/07/13 01:43:29;;;;;;;25.67;23.08;;;;;;;17.98;88.61;95855.25;3575439;40;20465;-66
2021/07/13 01:46:00;;;;;;;28.08;23.20;;;;;;;17.91;87.71;95861.00;3573407;40;20102;-67
2021/07/13 01:48:30;;;;;;;28.27;25.23;;;;;;;17.90;88.40;95867.44;3574995;40;20047;-66
2021/07/13 01:50:58;;;;;;;27.08;24.13;;;;;;;17.85;89.17;95869.44;3575184;40;20302;-67
2021/07/13 01:53:28;;;;;;;29.98;24.85;;;;;;;17.83;88.51;95864.41;3591018;39;20055;-67
2021/07/13 01:55:57;;;;;;;25.58;23.05;;;;;;;17.86;89.05;95877.13;3575433;40;20141;-67
2021/07/13 01:58:27;;;;;;;26.60;23.83;;;;;;;17.85;89.27;95870.19;3575647;40;20390;-67
2021/07/13 02:01:04;;;;;;;25.48;22.95;;;;;;;17.85;88.38;95872.88;3575505;40;20051;-67
2021/07/13 02:03:32;;;;;;;25.75;23.00;;;;;;;17.85;88.39;95877.44;3582626;40;20049;-67
2021/07/13 02:06:01;;;;;;;25.77;23.15;;;;;;;17.83;88.66;95875.06;3574168;40;20052;-67
2021/07/13 02:08:29;;;;;;;26.20;23.58;;;;;;;17.82;88.35;95879.59;3574575;40;21180;-67
2021/07/13 02:10:57;;;;;;;28.60;23.98;;;;;;;17.82;88.87;95882.28;3575368;40;20045;-67
2021/07/13 02:13:28;;;;;;;25.88;23.15;;;;;;;17.83;88.57;95877.75;3582740;40;20044;-69
2021/07/13 02:15:59;;;;;;;26.00;23.13;;;;;;;17.79;88.67;95868.75;3575425;40;20088;-66
2021/07/13 02:18:27;;;;;;;26.58;23.80;;;;;;;17.78;88.66;95869.84;3574770;40;20053;-67
2021/07/13 02:20:55;;;;;;;25.13;22.60;;;;;;;17.77;89.52;95865.59;3585809;40;20086;-67
2021/07/13 02:23:23;;;;;;;25.55;23.05;;;;;;;17.81;89.69;95869.25;3573161;40;20309;-67
2021/07/13 02:25:55;;;;;;;25.15;22.52;;;;;;;17.79;89.25;95868.75;3579876;40;20051;-67
2021/07/13 02:28:46;;;;;;;24.95;22.35;;;;;;;17.78;88.64;95870.66;3576797;40;20309;-67
2021/07/13 02:31:35;;;;;;;24.13;21.58;;;;;;;17.74;88.85;95867.00;3585495;40;20050;-67
2021/07/13 02:34:13;;;;;;;25.08;22.67;;;;;;;17.72;89.25;95869.19;3591441;40;20163;-67
2021/07/13 02:36:45;;;;;;;26.15;23.17;;;;;;;17.72;89.53;95871.06;3585551;40;20048;-67
2021/07/13 02:39:14;;;;;;;26.60;23.85;;;;;;;17.72;89.28;95869.19;3591397;40;20132;-68
2021/07/13 02:41:48;;;;;;;25.38;22.67;;;;;;;17.70;89.81;95871.34;3571042;40;20621;-67
2021/07/13 02:44:19;;;;;;;26.10;23.47;;;;;;;17.67;89.02;95878.09;3585534;40;20309;-68
2021/07/13 02:46:47;;;;;;;24.70;21.90;;;;;;;17.67;89.82;95875.44;3583511;40;20041;-68
2021/07/13 02:49:20;;;;;;;24.58;22.23;;;;;;;17.68;89.32;95878.88;3585596;40;20047;-67
2021/07/13 02:51:53;;;;;;;26.00;23.42;;;;;;;17.71;90.12;95878.28;3585111;40;20285;-67
2021/07/13 02:54:24;;;;;;;26.20;23.45;;;;;;;17.73;89.95;95880.63;3575252;40;20041;-68
2021/07/13 02:56:54;;;;;;;22.73;20.55;;;;;;;17.77;89.44;95884.28;3575406;40;20052;-67
2021/07/13 02:59:24;;;;;;;24.42;22.02;;;;;;;17.79;88.63;95885.53;3582895;40;20051;-67
2021/07/13 03:01:52;;;;;;;23.70;21.33;;;;;;;17.80;88.59;95881.78;3575691;40;20055;-67
2021/07/13 03:04:22;;;;;;;23.23;20.95;;;;;;;17.77;89.32;95885.09;3575278;40;20071;-67
2021/07/13 03:06:50;;;;;;;25.42;22.92;;;;;;;17.81;88.41;95890.59;3585278;40;20318;-67
2021/07/13 03:09:18;;;;;;;23.77;21.10;;;;;;;17.83;88.62;95889.19;3584301;40;20052;-67
2021/07/13 03:11:46;;;;;;;26.20;23.50;;;;;;;17.83;88.49;95891.09;3574948;40;20044;-67
2021/07/13 03:14:17;;;;;;;26.55;23.88;;;;;;;17.88;88.13;95890.19;3585317;40;20305;-67
2021/07/13 03:16:47;;;;;;;24.15;21.77;;;;;;;17.87;88.75;95886.69;3584182;40;20057;-67
2021/07/13 03:19:17;;;;;;;24.63;21.55;;;;;;;17.88;88.22;95882.94;3585568;40;20075;-67
2021/07/13 03:21:56;;;;;;;24.65;22.25;;;;;;;17.92;88.06;95886.59;3575848;40;20059;-67
2021/07/13 03:24:25;;;;;;;24.45;22.02;;;;;;;17.93;88.18;95884.69;3583525;40;20056;-66
2021/07/13 03:26:56;;;;;;;32.53;22.00;;;;;;;17.96;87.37;95884.09;3582843;40;20119;-68
2021/07/13 03:29:25;;;;;;;26.73;22.65;;;;;;;18.00;87.88;95887.78;3575203;40;20225;-66
2021/07/13 03:31:53;;;;;;;25.27;22.08;;;;;;;17.98;87.34;95893.41;3582048;40;20049;-67
2021/07/13 03:34:26;;;;;;;25.52;22.80;;;;;;;17.94;88.27;95880.94;3574067;40;20061;-67
2021/07/13 03:36:56;;;;;;;24.88;22.27;;;;;;;17.93;87.31;95880.16;3581319;40;20060;-67
2021/07/13 03:39:25;;;;;;;26.52;23.77;;;;;;;17.91;87.92;95887.69;3579148;40;20047;-67
2021/07/13 03:41:54;;;;;;;27.08;24.60;;;;;;;17.92;88.21;95888.47;3573096;40;20053;-67
2021/07/13 03:44:22;;;;;;;24.48;21.90;;;;;;;17.93;87.28;95890.84;3574251;40;20045;-67
2021/07/13 03:46:50;;;;;;;26.75;23.90;;;;;;;17.95;87.94;95893.19;3574838;40;20045;-67
2021/07/13 03:49:22;;;;;;;27.63;24.92;;;;;;;17.96;87.11;95895.56;3582098;39;20043;-67
2021/07/13 03:51:50;;;;;;;32.47;25.48;;;;;;;17.91;88.42;95881.53;3574806;40;20310;-67
2021/07/13 03:54:20;;;;;;;28.98;25.85;;;;;;;18.01;86.76;95886.69;3572993;40;20090;-67
2021/07/13 03:56:49;;;;;;;31.15;26.30;;;;;;;18.01;87.70;95884.03;3574240;40;20041;-66
2021/07/13 03:59:18;;;;;;;31.13;27.00;;;;;;;18.02;87.93;95882.94;3573994;40;20051;-66
2021/07/13 04:01:45;;;;;;;27.25;24.30;;;;;;;18.05;87.57;95881.53;3583454;40;20045;-66
2021/07/13 04:04:14;;;;;;;28.42;25.52;;;;;;;18.08;87.68;95887.03;3573025;40;20052;-66
2021/07/13 04:06:43;;;;;;;30.40;26.65;;;;;;;18.09;87.68;95880.59;3574249;40;20430;-66
2021/07/13 04:09:10;;;;;;;29.15;26.27;;;;;;;18.11;86.61;95880.28;3573829;40;20525;-67
2021/07/13 04:11:39;;;;;;;29.35;26.40;;;;;;;18.14;87.08;95887.69;3589584;39;20049;-66
2021/07/13 04:14:06;;;;;;;33.50;29.92;;;;;;;18.15;87.19;95883.16;3570633;40;20197;-66
2021/07/13 04:16:35;;;;;;;29.58;26.40;;;;;;;18.21;86.20;95889.94;3580890;40;20303;-66
2021/07/13 04:19:04;;;;;;;30.45;26.08;;;;;;;18.22;86.12;95880.84;3582294;40;20325;-66
2021/07/13 04:21:32;;;;;;;28.00;25.25;;;;;;;18.22;86.11;95876.28;3588988;40;20056;-66
2021/07/13 04:23:59;;;;;;;28.42;24.40;;;;;;;18.27;86.49;95878.06;3574060;40;20052;-66
2021/07/13 04:26:27;;;;;;;27.02;24.33;;;;;;;18.31;85.71;95873.66;3581524;40;20071;-66
2021/07/13 04:28:55;;;;;;;28.73;25.95;;;;;;;18.32;86.21;95872.56;3577573;40;20041;-66
2021/07/13 04:31:23;;;;;;;26.83;24.13;;;;;;;18.36;85.77;95872.72;3584993;40;20040;-66
2021/07/13 04:33:50;;;;;;;27.98;25.13;;;;;;;18.41;85.73;95876.06;3584436;40;20059;-66
2021/07/13 04:36:18;;;;;;;27.92;24.65;;;;;;;18.46;86.27;95869.00;3581395;40;20047;-66
2021/07/13 04:38:46;;;;;;;28.70;26.05;;;;;;;18.52;85.58;95870.47;3582319;40;20055;-66
2021/07/13 04:41:14;;;;;;;30.45;26.83;;;;;;;18.55;85.27;95873.31;3576163;40;20218;-66
2021/07/13 04:43:42;;;;;;;33.47;27.17;;;;;;;18.56;85.36;95872.22;3570988;40;20086;-66
2021/07/13 04:46:10;;;;;;;32.50;26.90;;;;;;;18.58;85.34;95870.00;3584218;40;20045;-66
2021/07/13 04:48:38;;;;;;;33.50;30.30;;;;;;;18.60;84.67;95869.72;3568620;40;20048;-67
2021/07/13 04:51:06;;;;;;;25.50;23.25;;;;;;;18.63;84.88;95870.97;3579920;40;20048;-67
2021/07/13 04:53:34;;;;;;;31.00;27.23;;;;;;;18.68;84.42;95870.84;3584105;40;20317;-67
2021/07/13 04:56:02;;;;;;;29.20;26.42;;;;;;;18.69;83.95;95875.09;3584939;40;20088;-66
2021/07/13 04:58:29;;;;;;;29.27;26.20;;;;;;;18.74;83.65;95874.94;3583528;39;20068;-66
2021/07/13 05:00:57;;;;;;;30.33;27.42;;;;;;;18.77;83.40;95879.66;3574678;40;20049;-66
2021/07/13 05:03:25;;;;;;;27.98;25.27;;;;;;;18.83;83.41;95872.31;3584234;40;20063;-66
2021/07/13 05:05:53;;;;;;;30.33;27.15;;;;;;;18.86;82.40;95877.03;3584001;40;20321;-66
2021/07/13 05:08:24;;;;;;;29.67;27.15;;;;;;;18.88;82.58;95874.84;3583460;40;20297;-67
2021/07/13 05:10:52;;;;;;;29.73;26.38;;;;;;;18.87;81.68;95873.25;3584943;40;20045;-66
2021/07/13 05:13:20;;;;;;;29.35;26.60;;;;;;;18.92;81.28;95878.44;3567644;40;20647;-66
2021/07/13 05:15:48;;;;;;;29.15;26.25;;;;;;;18.93;81.80;95876.59;3584413;40;20067;-66
2021/07/13 05:18:16;;;;;;;31.33;28.25;;;;;;;18.94;81.23;95865.59;3583996;40;20041;-66
2021/07/13 05:20:48;;;;;;;29.65;26.85;;;;;;;18.93;80.76;95872.00;3574626;40;20067;-66
2021/07/13 05:23:16;;;;;;;30.63;27.58;;;;;;;18.97;80.89;95862.31;3583814;40;20044;-66
2021/07/13 05:25:44;;;;;;;28.77;26.13;;;;;;;19.02;81.54;95870.16;3573371;40;20407;-67
2021/07/13 05:28:12;;;;;;;29.65;26.60;;;;;;;19.07;81.61;95871.94;3573524;40;20055;-67
2021/07/13 05:30:43;;;;;;;29.27;26.30;;;;;;;19.14;80.96;95871.47;3584105;40;20041;-66
2021/07/13 05:33:12;;;;;;;30.20;27.15;;;;;;;19.18;80.42;95878.56;3583240;40;20299;-67
2021/07/13 05:35:42;;;;;;;30.27;27.48;;;;;;;19.28;80.26;95877.47;3583443;40;20548;-67
2021/07/13 05:38:11;;;;;;;28.15;25.27;;;;;;;19.41;79.65;95875.75;3574409;40;20047;-67
2021/07/13 05:40:43;;;;;;;29.33;25.25;;;;;;;19.57;79.50;95880.66;3574908;40;20059;-66
2021/07/13 05:43:12;;;;;;;31.25;26.80;;;;;;;19.72;78.69;95872.13;3584238;40;20552;-67
2021/07/13 05:45:40;;;;;;;29.40;26.25;;;;;;;19.86;77.83;95865.81;3582190;40;20031;-67
2021/07/13 05:48:07;;;;;;;25.65;22.48;;;;;;;20.00;77.26;95873.72;3591805;39;20070;-67
2021/07/13 05:50:36;;;;;;;26.17;23.58;;;;;;;20.17;76.95;95878.25;3590672;39;20302;-67
2021/07/13 05:53:04;;;;;;;26.17;23.77;;;;;;;20.32;75.52;95876.97;3585192;40;20053;-67
2021/07/13 05:55:31;;;;;;;26.48;23.80;;;;;;;20.45;75.24;95873.28;3585349;40;20049;-67
2021/07/13 05:57:59;;;;;;;26.95;24.38;;;;;;;20.55;74.85;95875.63;3575460;40;20048;-66
2021/07/13 06:00:27;;;;;;;27.60;24.67;;;;;;;20.63;73.87;95879.38;3585174;40;20057;-66
2021/07/13 06:02:54;;;;;;;25.63;23.00;;;;;;;20.72;73.84;95868.63;3584927;40;20049;-66
2021/07/13 06:05:22;;;;;;;25.45;23.15;;;;;;;20.91;72.63;95878.16;3585199;40;20306;-66
2021/07/13 06:07:50;;;;;;;28.48;25.77;;;;;;;20.96;72.12;95875.31;3575238;40;20135;-66
2021/07/13 06:10:18;;;;;;;28.48;25.58;;;;;;;21.01;72.10;95875.13;3584795;40;20416;-68
2021/07/13 06:12:47;;;;;;;27.67;25.27;;;;;;;21.15;71.69;95873.00;3584771;40;20060;-68
2021/07/13 06:15:15;;;;;;;28.05;25.40;;;;;;;21.38;70.34;95883.41;3584881;40;20161;-68
2021/07/13 06:17:44;;;;;;;33.05;26.13;;;;;;;21.65;70.51;95881.34;3584865;40;20052;-68
2021/07/13 06:20:12;;;;;;;26.63;24.02;;;;;;;21.80;69.28;95875.38;3571506;40;20313;-66
2021/07/13 06:22:41;;;;;;;29.30;25.70;;;;;;;22.04;68.24;95873.91;3585021;40;20052;-66
2021/07/13 06:25:10;;;;;;;29.45;26.35;;;;;;;22.27;68.03;95873.53;3583804;40;20033;-68
2021/07/13 06:27:38;;;;;;;26.85;24.52;;;;;;;22.33;66.57;95866.03;3575362;40;20416;-66
2021/07/13 06:30:08;;;;;;;28.88;26.25;;;;;;;22.29;66.96;95865.91;3583971;40;20079;-67
2021/07/13 06:32:36;;;;;;;30.55;27.52;;;;;;;22.23;67.19;95854.59;3579458;40;20237;-66
2021/07/13 06:35:04;;;;;;;29.70;26.80;;;;;;;22.16;67.39;95853.56;3576396;40;20045;-66
2021/07/13 06:37:34;;;;;;;26.02;23.63;;;;;;;22.28;67.87;95853.59;3585482;40;20084;-68
2021/07/13 06:40:04;;;;;;;25.67;23.08;;;;;;;22.18;66.28;95856.72;3585470;40;20405;-66
2021/07/13 06:42:32;;;;;;;23.48;21.13;;;;;;;22.15;67.59;95850.13;3584954;40;20543;-66
2021/07/13 06:44:59;;;;;;;22.73;20.50;;;;;;;22.21;67.83;95850.69;3585333;40;20055;-67
2021/07/13 06:47:27;;;;;;;22.88;20.67;;;;;;;22.21;68.13;95850.69;3576026;40;20290;-66
2021/07/13 06:49:55;;;;;;;22.05;20.05;;;;;;;22.10;67.80;95851.09;3583191;40;20037;-67
2021/07/13 06:52:22;;;;;;;25.85;23.25;;;;;;;22.03;67.30;95840.09;3580333;40;20044;-67
2021/07/13 06:54:50;;;;;;;25.13;22.67;;;;;;;22.12;68.12;95837.34;3568022;40;20032;-67
2021/07/13 06:57:18;;;;;;;21.33;19.25;;;;;;;22.19;67.81;95829.50;3584888;40;20052;-67
2021/07/13 06:59:46;;;;;;;23.70;21.45;;;;;;;22.36;67.04;95819.69;3584380;40;20055;-67
2021/07/13 07:02:14;;;;;;;21.13;19.13;;;;;;;22.48;67.95;95824.31;3585248;39;20332;-67
2021/07/13 07:04:42;;;;;;;21.92;20.05;;;;;;;22.55;66.24;95817.25;3574995;40;20421;-67
2021/07/13 07:07:09;;;;;;;26.52;23.90;;;;;;;22.54;65.30;95815.69;3575449;40;20071;-67
2021/07/13 07:09:37;;;;;;;23.88;21.30;;;;;;;22.40;66.28;95816.00;3584834;40;20425;-67
2021/07/13 07:12:05;;;;;;;25.83;23.42;;;;;;;22.53;65.52;95819.50;3584626;40;20053;-67
2021/07/13 07:14:33;;;;;;;26.63;23.92;;;;;;;22.52;66.07;95803.72;3583653;40;20314;-67
2021/07/13 07:17:01;;;;;;;23.75;21.48;;;;;;;22.54;67.00;95814.91;3585248;40;20136;-67
2021/07/13 07:19:29;;;;;;;22.67;20.50;;;;;;;22.70;66.31;95817.72;3584512;40;20403;-67
2021/07/13 07:21:57;;;;;;;20.58;18.75;;;;;;;22.81;66.65;95812.69;3574799;40;20339;-67
2021/07/13 07:24:24;;;;;;;22.45;20.42;;;;;;;22.92;65.89;95812.97;3584829;40;20051;-67
2021/07/13 07:26:52;;;;;;;21.45;19.52;;;;;;;23.11;66.09;95812.38;3579075;40;20056;-67
2021/07/13 07:29:20;;;;;;;23.38;21.17;;;;;;;23.19;64.82;95812.28;3574938;40;20310;-67
2021/07/13 07:31:47;;;;;;;26.65;23.85;;;;;;;23.17;64.96;95813.75;3573580;40;20051;-67
2021/07/13 07:34:18;;;;;;;27.33;24.75;;;;;;;23.21;64.91;95798.50;3573592;40;20308;-67
2021/07/13 07:36:46;;;;;;;25.65;23.40;;;;;;;23.21;64.99;95813.88;3590251;39;20049;-67
2021/07/13 07:39:14;;;;;;;27.13;23.75;;;;;;;23.29;65.09;95804.88;3574702;40;20045;-67
2021/07/13 07:41:42;;;;;;;26.42;23.90;;;;;;;23.50;65.64;95796.63;3573622;40;20043;-67
2021/07/13 07:44:09;;;;;;;26.73;22.73;;;;;;;23.67;64.96;95802.84;3590790;39;20306;-67
2021/07/13 07:46:41;;;;;;;25.13;22.42;;;;;;;23.82;64.45;95801.31;3575099;40;20426;-67
2021/07/13 07:49:10;;;;;;;24.50;22.05;;;;;;;23.87;62.85;95807.22;3575040;40;20640;-68
2021/07/13 07:51:37;;;;;;;25.85;23.42;;;;;;;23.86;63.72;95792.19;3575145;40;20053;-67
2021/07/13 07:54:06;;;;;;;26.45;23.73;;;;;;;24.00;63.02;95796.41;3574867;40;20332;-66
2021/07/13 07:56:35;;;;;;;24.00;21.55;;;;;;;23.98;63.35;95791.38;3582089;40;20117;-66
2021/07/13 07:59:04;;;;;;;24.23;21.25;;;;;;;24.17;63.50;95798.00;3580255;40;20053;-65
2021/07/13 08:01:32;;;;;;;21.63;19.63;;;;;;;24.24;62.00;95798.94;3589124;40;20036;-68
2021/07/13 08:04:00;;;;;;;20.40;18.40;;;;;;;24.35;62.21;95801.13;3572272;40;20382;-66
2021/07/13 08:06:28;;;;;;;20.75;18.45;;;;;;;24.32;61.16;95796.41;3589985;39;20049;-66
2021/07/13 08:08:55;;;;;;;20.27;18.48;;;;;;;24.37;61.33;95796.16;3580346;40;20187;-67
2021/07/13 08:11:23;;;;;;;17.30;15.65;;;;;;;24.52;61.83;95792.69;3574897;40;20633;-67
2021/07/13 08:13:51;;;;;;;17.25;15.73;;;;;;;24.69;59.80;95793.47;3564477;40;20059;-68
2021/07/13 08:16:19;;;;;;;17.75;16.33;;;;;;;24.83;60.55;95799.19;3572403;40;20057;-66
2021/07/13 08:18:47;;;;;;;17.38;15.90;;;;;;;24.94;60.76;95790.53;3581360;39;20471;-68
2021/07/13 08:21:33;;;;;;;16.17;14.48;;;;;;;25.08;59.06;95790.09;3575875;40;20053;-67
2021/07/13 08:24:02;;;;;;;13.75;12.55;;;;;;;25.16;57.97;95775.59;3574364;40;20065;-67
2021/07/13 08:26:29;;;;;;;14.40;13.00;;;;;;;25.31;57.43;95777.47;3581689;40;20045;-67
2021/07/13 08:28:57;;;;;;;15.48;13.88;;;;;;;25.45;57.52;95778.91;3575067;40;20090;-67
2021/07/13 08:31:25;;;;;;;14.40;12.90;;;;;;;25.44;56.32;95780.81;3583809;40;20052;-67
2021/07/13 08:33:53;;;;;;;14.57;13.27;;;;;;;25.51;56.38;95782.88;3584103;40;20050;-67
2021/07/13 08:36:21;;;;;;;13.55;12.35;;;;;;;25.65;56.46;95779.69;3568140;39;20074;-68
2021/07/13 08:38:49;;;;;;;14.13;12.77;;;;;;;25.80;55.48;95786.13;3583654;40;20105;-67
2021/07/13 08:41:21;;;;;;;15.23;13.63;;;;;;;25.96;55.62;95787.97;3568502;40;20053;-67
2021/07/13 08:43:53;;;;;;;13.48;12.00;;;;;;;26.18;55.79;95787.22;3574280;40;20129;-67
2021/07/13 08:46:21;;;;;;;14.38;12.75;;;;;;;26.31;54.23;95779.69;3575432;40;20303;-67
2021/07/13 08:48:53;;;;;;;15.93;13.40;;;;;;;26.35;54.01;95788.66;3569338;40;20047;-67
2021/07/13 08:51:21;;;;;;;12.77;11.60;;;;;;;26.50;53.74;95783.47;3584701;40;20036;-67
2021/07/13 08:53:49;;;;;;;13.65;12.18;;;;;;;26.62;53.72;95780.56;3584487;40;20289;-67
2021/07/13 08:56:17;;;;;;;20.65;12.20;;;;;;;26.64;53.50;95775.56;3585193;40;20045;-67
2021/07/13 08:58:44;;;;;;;11.63;10.65;;;;;;;26.70;52.19;95771.41;3584441;40;20052;-67
2021/07/13 09:01:13;;;;;;;14.98;13.48;;;;;;;26.79;53.26;95773.06;3575738;40;20040;-67
2021/07/13 09:03:57;;;;;;;10.73;9.93;;;;;;;26.90;50.55;95771.31;3581610;40;20048;-68
2021/07/13 09:06:26;;;;;;;9.77;8.88;;;;;;;27.02;49.58;95762.97;3584285;40;20041;-68
2021/07/13 09:08:53;;;;;;;10.98;10.07;;;;;;;27.05;51.11;95766.88;3576280;40;20063;-67
2021/07/13 09:11:22;;;;;;;11.30;10.23;;;;;;;27.13;49.99;95767.75;3584336;40;20089;-67
2021/07/13 09:13:55;;;;;;;10.80;9.73;;;;;;;27.25;50.15;95764.81;3584551;40;20048;-66
2021/07/13 09:16:30;;;;;;;10.23;9.32;;;;;;;27.41;50.38;95758.41;3582701;40;20051;-66
2021/07/13 09:18:59;;;;;;;9.25;8.55;;;;;;;27.55;49.40;95755.88;3584962;40;20083;-66
2021/07/13 09:21:33;;;;;;;10.13;9.23;;;;;;;27.65;47.46;95757.16;3584429;40;20063;-67
2021/07/13 09:24:01;;;;;;;9.33;8.53;;;;;;;27.69;48.09;95760.69;3590729;39;20337;-66
2021/07/13 09:26:43;;;;;;;8.57;7.82;;;;;;;27.65;47.12;95749.03;3583898;40;20326;-67
2021/07/13 09:29:36;;;;;;;9.50;8.60;;;;;;;27.69;47.64;95755.28;3585202;40;20601;-68
2021/07/13 09:32:19;;;;;;;8.90;8.05;;;;;;;27.83;48.75;95762.75;3584714;40;20058;-67
2021/07/13 09:35:01;;;;;;;10.10;8.98;;;;;;;28.04;47.49;95755.97;3583600;40;20055;-68
2021/07/13 09:37:33;;;;;;;9.93;8.90;;;;;;;28.08;47.75;95763.00;3575772;40;20059;-68
2021/07/13 09:40:05;;;;;;;10.20;9.30;;;;;;;28.11;46.35;95766.91;3591521;39;20400;-68
2021/07/13 09:42:35;;;;;;;10.75;9.82;;;;;;;28.13;46.75;95767.31;3591418;39;20666;-68
2021/07/13 09:45:22;;;;;;;9.77;9.07;;;;;;;28.15;46.25;95767.72;3585292;40;20035;-67
2021/07/13 09:47:55;;;;;;;11.75;9.95;;;;;;;28.16;46.92;95757.66;3581157;40;20056;-68
2021/07/13 09:50:53;;;;;;;10.48;8.48;;;;;;;28.34;46.64;95760.50;3575935;40;20477;-68
2021/07/13 09:53:22;;;;;;;9.60;8.70;;;;;;;28.43;46.16;95754.78;3580655;40;20058;-67
2021/07/13 09:55:51;;;;;;;9.55;8.77;;;;;;;28.51;46.80;95756.38;3593510;39;20498;-67
2021/07/13 09:58:22;;;;;;;9.23;8.40;;;;;;;28.58;45.74;95745.56;3576412;40;20074;-67
2021/07/13 10:00:57;;;;;;;9.45;8.57;;;;;;;28.53;46.11;95749.41;3585587;40;20066;-67
2021/07/13 10:03:25;;;;;;;9.57;8.68;;;;;;;28.65;45.95;95745.63;3586001;40;20049;-66
2021/07/13 10:05:54;;;;;;;9.98;9.02;;;;;;;28.81;46.82;95753.50;3592585;39;20067;-67
2021/07/13 10:08:23;;;;;;;9.68;8.57;;;;;;;28.92;45.20;95744.63;3584764;40;20044;-67
2021/07/13 10:10:51;;;;;;;10.48;7.97;;;;;;;29.03;46.34;95759.03;3583247;40;20150;-66
2021/07/13 10:13:19;;;;;;;9.27;8.57;;;;;;;29.11;44.29;95749.75;3581887;40;20040;-68
2021/07/13 10:15:50;;;;;;;10.27;9.35;;;;;;;29.15;45.09;95756.00;3585225;40;20054;-68
2021/07/13 10:18:21;;;;;;;10.10;9.07;;;;;;;29.21;44.74;95752.91;3584980;40;20055;-67
2021/07/13 10:20:52;;;;;;;15.50;10.82;;;;;;;29.24;45.36;95755.66;3590515;39;20037;-67
2021/07/13 10:23:20;;;;;;;9.60;8.70;;;;;;;29.29;45.32;95749.81;3580919;40;20045;-68
2021/07/13 10:25:50;;;;;;;8.60;7.88;;;;;;;29.35;44.53;95752.22;3575602;40;20420;-67
2021/07/13 10:28:20;;;;;;;9.75;8.52;;;;;;;29.36;44.01;95738.25;3575545;40;20250;-67
2021/07/13 10:30:54;;;;;;;9.45;8.43;;;;;;;29.30;43.63;95742.47;3591744;39;20045;-67
2021/07/13 10:33:36;;;;;;;8.93;8.02;;;;;;;29.31;43.71;95741.31;3593149;39;20060;-68
2021/07/13 10:36:28;;;;;;;11.85;8.45;;;;;;;29.27;43.34;95735.88;3583508;40;20468;-67
2021/07/13 10:39:24;;;;;;;8.75;7.57;;;;;;;29.27;43.12;95733.16;3584196;40;20044;-67
2021/07/13 10:41:54;;;;;;;8.38;7.68;;;;;;;29.32;42.28;95723.84;3584978;40;20080;-68
2021/07/13 10:44:43;;;;;;;8.98;8.20;;;;;;;29.30;42.81;95734.31;3576426;40;20048;-67
2021/07/13 10:47:26;;;;;;;9.98;9.07;;;;;;;29.38;42.27;95733.19;3593901;39;20056;-68
2021/07/13 10:50:16;;;;;;;9.57;8.68;;;;;;;29.37;42.53;95733.59;3581152;40;20048;-67
2021/07/13 10:53:07;;;;;;;8.75;7.95;;;;;;;29.37;41.96;95728.94;3593845;39;20070;-68
2021/07/13 10:55:37;;;;;;;8.48;7.60;;;;;;;29.45;42.07;95725.09;3583746;40;20071;-68
2021/07/13 10:58:14;;;;;;;10.05;8.32;;;;;;;29.43;42.19;95724.69;3585396;40;20057;-67
2021/07/13 11:00:48;;;;;;;8.43;7.72;;;;;;;29.44;40.16;95720.81;3592108;40;20055;-68
2021/07/13 11:06:00;;;;;;;9.18;7.05;;;;;;;29.46;40.95;95709.56;3585031;40;20622;-68
2021/07/13 11:11:10;;;;;;;7.40;6.57;;;;;;;29.61;40.45;95724.72;3583022;40;20053;-68
2021/07/13 11:13:37;;;;;;;7.20;6.60;;;;;;;29.68;39.94;95718.53;3583366;40;20048;-67
2021/07/13 11:16:06;;;;;;;7.93;7.18;;;;;;;29.79;40.47;95710.38;3584938;40;20047;-67
2021/07/13 11:18:36;;;;;;;7.82;7.28;;;;;;;29.91;38.90;95711.94;3585542;40;20154;-67
2021/07/13 11:21:16;;;;;;;8.23;7.55;;;;;;;29.90;38.38;95703.03;3576074;40;20054;-67
2021/07/13 11:23:54;;;;;;;7.82;7.18;;;;;;;29.95;39.22;95709.25;3582993;40;20046;-69
2021/07/13 11:26:24;;;;;;;9.80;8.98;;;;;;;29.96;39.25;95718.97;3584435;40;20095;-67
2021/07/13 11:29:00;;;;;;;9.43;8.50;;;;;;;29.98;40.78;95706.53;3584446;40;20056;-68
2021/07/13 11:31:33;;;;;;;9.30;6.88;;;;;;;30.01;39.62;95711.22;3583307;40;20052;-68
2021/07/13 11:34:05;;;;;;;8.07;7.38;;;;;;;30.09;39.85;95705.78;3584172;40;20059;-67
2021/07/13 11:36:39;;;;;;;8.55;6.43;;;;;;;30.12;38.78;95702.25;3591935;39;20148;-67
2021/07/13 11:39:23;;;;;;;7.60;6.88;;;;;;;30.08;39.10;95687.91;3591930;39;20058;-68
2021/07/13 11:41:55;;;;;;;7.65;6.85;;;;;;;30.15;38.58;95690.63;3585154;40;20094;-68